Flight Track Log - Related Links

Times and Time Zones

All times are in EDT time to prevent confusion due to time zone crossing. See the SWA2236 flight status page for this flight to view local times or setup timezone preferences in your user account.

Time Position Orientation Groundspeed Altitude Reporting Facility
EDT Latitude Longitude Course Direction KTS MPH feet Rate Location/Type
Wed 02:32:26 PM 36.0761 -115.1789 257° West 198 228 3,200  Level Los Angeles Center
Wed 02:33:39 PM 36.0611 -115.2583 257° West 221 254 5,700 1,963 Climbing Los Angeles Center
Wed 02:34:13 PM 36.0256 -115.2742 200° South 230 265 6,700 2,375 Climbing Los Angeles Center
Wed 02:35:15 PM 35.9569 -115.2981 196° South 250 288 9,500 2,323 Climbing Los Angeles Center
Wed 02:36:17 PM 35.9158 -115.2175 122° Southeast 290 334 11,500 1,839 Climbing Los Angeles Center
Wed 02:37:19 PM 35.9206 -115.0997 87° East 340 391 13,300 2,032 Climbing Los Angeles Center
Wed 02:38:21 PM 35.9208 -114.9694 90° East 368 423 15,700 2,371 Climbing Los Angeles Center
Wed 02:39:23 PM 35.9219 -114.8094 89° East 386 444 18,200 2,323 Climbing Los Angeles Center
Wed 02:40:25 PM 35.9228 -114.6689 90° East 401 461 20,500 1,984 Climbing Los Angeles Center
Wed 02:41:27 PM 35.9228 -114.5253 90° East 414 476 22,300 1,544 Climbing Los Angeles Center
Wed 02:42:41 PM 35.9236 -114.3786 90° East 424 488 24,000 1,577 Climbing Los Angeles Center
Wed 02:43:44 PM 35.9239 -114.1972 90° East 436 502 25,900 1,536 Climbing Los Angeles Center
Wed 02:44:46 PM 35.9236 -114.0411 90° East 449 517 27,200 1,452 Climbing Los Angeles Center
Wed 02:45:48 PM 35.9214 -113.8489 91° East 460 529 28,900 1,500 Climbing Los Angeles Center
Wed 02:46:50 PM 35.8989 -113.6908 100° East 465 535 30,300 1,258 Climbing Los Angeles Center
Wed 02:47:52 PM 35.8656 -113.5367 105° East 467 537 31,500 1,248 Climbing Los Angeles Center
Wed 02:48:55 PM 35.8400 -113.3781 101° East 471 542 32,900 720 Climbing Los Angeles Center
Wed 02:49:57 PM 35.8156 -113.2208 101° East 470 541 33,000 48 Climbing Los Angeles Center
Wed 02:50:59 PM 35.7936 -113.0653 100° East 466 536 33,000 581 Level Los Angeles Center
Wed 02:52:01 PM 35.7992 -112.8753 88° East 463 533 34,200 1,258 Climbing Los Angeles Center
Wed 02:53:03 PM 35.8011 -112.7208 89° East 455 524 35,600 1,015 Climbing Los Angeles Center
Wed 02:54:17 PM 35.8031 -112.5683 89° East 448 516 36,500 613 Climbing Los Angeles Center
Wed 02:55:20 PM 35.8050 -112.3847 89° East 447 514 37,000 240 Climbing Los Angeles Center
Wed 02:56:22 PM 35.8058 -112.2325 90° East 446 513 37,000  Level Los Angeles Center
Wed 02:57:24 PM 35.8072 -112.0808 89° East 447 514 37,000  Level Los Angeles Center
Wed 02:58:26 PM 35.8086 -111.8997 89° East 442 509 37,000  Level Los Angeles Center
Wed 02:59:28 PM 35.8092 -111.7492 90° East 442 509 37,000  Level Los Angeles Center
Wed 03:00:30 PM 35.8081 -111.5969 90° East 444 511 37,000  Level Albuquerque Center
Wed 03:01:31 PM 35.8092 -111.4389 89° East 444 511 37,000  Level Albuquerque Center
Wed 03:02:33 PM 35.8094 -111.2714 90° East 440 506 37,000  Level Albuquerque Center
Wed 03:03:34 PM 35.8089 -111.1281 90° East 439 505 37,000  Level Albuquerque Center
Wed 03:04:36 PM 35.8097 -110.9839 90° East 439 505 37,000  Level Albuquerque Center
Wed 03:05:37 PM 35.8083 -110.8156 91° East 440 506 37,000  Level Albuquerque Center
Wed 03:06:39 PM 35.8078 -110.6714 90° East 440 506 37,000  Level Albuquerque Center
Wed 03:07:40 PM 35.8069 -110.5050 90° East 436 502 37,000  Level Albuquerque Center
Wed 03:08:42 PM 35.8047 -110.3622 91° East 437 503 37,000  Level Albuquerque Center
Wed 03:09:44 PM 35.8056 -110.2225 90° East 430 495 37,000  Level Albuquerque Center
Wed 03:10:45 PM 35.8039 -110.0592 91° East 428 493 37,000  Level Albuquerque Center
Wed 03:11:47 PM 35.7992 -109.9200 92° East 426 490 37,000  Level Albuquerque Center
Wed 03:12:48 PM 35.7817 -109.7572 98° East 428 493 37,000  Level Albuquerque Center
Wed 03:13:50 PM 35.7694 -109.6181 96° East 429 494 37,000  Level Albuquerque Center
Wed 03:14:52 PM 35.7447 -109.4581 101° East 428 493 37,000  Level Albuquerque Center
Wed 03:15:53 PM 35.7342 -109.3175 95° East 433 498 37,000  Level Albuquerque Center
Wed 03:16:55 PM 35.7172 -109.1550 97° East 431 496 37,000  Level Albuquerque Center
Wed 03:17:57 PM 35.7036 -109.0144 97° East 433 498 37,000  Level Albuquerque Center
Wed 03:18:59 PM 35.6872 -108.8519 97° East 433 498 37,000  Level Albuquerque Center
Wed 03:20:00 PM 35.6736 -108.7119 97° East 433 498 37,000  Level Albuquerque Center
Wed 03:21:02 PM 35.6597 -108.5736 97° East 431 496 37,000  Level Albuquerque Center
Wed 03:22:04 PM 35.6439 -108.4133 97° East 426 490 37,000  Level Albuquerque Center
Wed 03:23:05 PM 35.6286 -108.2764 98° East 425 489 37,000  Level Albuquerque Center
Wed 03:24:07 PM 35.6131 -108.1169 97° East 423 487 37,000  Level Albuquerque Center
Wed 03:25:09 PM 35.5989 -107.9822 97° East 419 482 37,000  Level Albuquerque Center
Wed 03:26:11 PM 35.5808 -107.8253 98° East 417 480 37,000  Level Albuquerque Center
Wed 03:27:12 PM 35.5661 -107.6917 98° East 414 476 37,000  Level Albuquerque Center
Wed 03:28:14 PM 35.5475 -107.5364 98° East 413 475 37,000  Level Albuquerque Center
Wed 03:29:16 PM 35.5328 -107.4017 98° East 414 476 37,000  Level Albuquerque Center
Wed 03:30:18 PM 35.5178 -107.2658 98° East 419 482 37,000  Level Albuquerque Center
Wed 03:31:20 PM 35.4989 -107.1019 98° East 420 483 37,000  Level Albuquerque Center
Wed 03:32:21 PM 35.4833 -106.9608 98° East 416 479 37,000  Level Albuquerque Center
Wed 03:33:23 PM 35.4672 -106.8183 98° East 417 480 37,000  Level Albuquerque Center
Wed 03:34:25 PM 35.4500 -106.6781 99° East 415 478 37,000  Level Albuquerque Center
Wed 03:35:27 PM 35.4331 -106.5378 98° East 413 475 37,000  Level Albuquerque Center
Wed 03:36:29 PM 35.4161 -106.3978 98° East 413 475 37,000  Level Albuquerque Center
Wed 03:37:30 PM 35.3986 -106.2594 99° East 411 473 37,000  Level Albuquerque Center
Wed 03:38:32 PM 35.3808 -106.1206 99° East 412 474 37,000  Level Albuquerque Center
Wed 03:39:34 PM 35.3608 -105.9719 99° East 411 473 37,000  Level Albuquerque Center
Wed 03:40:36 PM 35.3444 -105.8308 98° East 415 478 37,000  Level Albuquerque Center
Wed 03:41:37 PM 35.3275 -105.6903 98° East 415 478 37,000  Level Albuquerque Center
Wed 03:42:39 PM 35.3069 -105.5264 99° East 414 476 37,000  Level Albuquerque Center
Wed 03:43:41 PM 35.2878 -105.3867 100° East 414 476 37,000  Level Albuquerque Center
Wed 03:44:43 PM 35.2686 -105.2469 99° East 415 478 37,000  Level Albuquerque Center
Wed 03:45:44 PM 35.2503 -105.1072 99° East 414 476 37,000  Level Albuquerque Center
Wed 03:46:46 PM 35.2317 -104.9678 99° East 414 476 37,000  Level Albuquerque Center
Wed 03:47:48 PM 35.2117 -104.8294 100° East 411 473 37,000  Level Albuquerque Center
Wed 03:48:49 PM 35.1933 -104.6908 99° East 411 473 37,000  Level Albuquerque Center
Wed 03:49:51 PM 35.1764 -104.5567 99° East 414 476 37,000  Level Albuquerque Center
Wed 03:50:53 PM 35.1533 -104.3892 100° East 417 480 37,000  Level Albuquerque Center
Wed 03:51:54 PM 35.1339 -104.2489 100° East 420 483 37,000  Level Albuquerque Center
Wed 03:52:56 PM 35.1142 -104.1089 100° East 419 482 37,000  Level Albuquerque Center
Wed 03:53:58 PM 35.0936 -103.9686 100° East 420 483 37,000  Level Albuquerque Center
Wed 03:54:59 PM 35.0719 -103.8236 100° East 430 495 37,000  Level Albuquerque Center
Wed 03:56:01 PM 35.0522 -103.6808 100° East 427 491 37,000  Level Albuquerque Center
Wed 03:57:03 PM 35.0275 -103.5139 100° East 427 491 37,000  Level Albuquerque Center
Wed 03:58:04 PM 35.0058 -103.3700 100° East 427 491 37,000  Level Albuquerque Center
Wed 03:59:06 PM 34.9844 -103.2281 100° East 425 489 37,000  Level Albuquerque Center
Wed 04:00:07 PM 34.9633 -103.0867 100° East 422 486 37,000  Level Albuquerque Center
Wed 04:01:09 PM 34.9422 -102.9447 100° East 423 487 37,000  Level Albuquerque Center
Wed 04:02:11 PM 34.9192 -102.8025 101° East 424 488 37,000  Level Albuquerque Center
Wed 04:03:12 PM 34.8981 -102.6600 100° East 424 488 37,000  Level Albuquerque Center
Wed 04:04:14 PM 34.8781 -102.5269 100° East 424 488 37,000  Level Albuquerque Center
Wed 04:05:15 PM 34.8508 -102.3583 101° East 425 489 37,000  Level Albuquerque Center
Wed 04:06:17 PM 34.8286 -102.2169 101° East 427 491 37,000  Level Albuquerque Center
Wed 04:07:19 PM 34.8061 -102.0756 101° East 428 493 37,000  Level Albuquerque Center
Wed 04:08:20 PM 34.7833 -101.9344 101° East 429 494 37,000  Level Albuquerque Center
Wed 04:09:22 PM 34.7606 -101.7947 101° East 427 491 37,000  Level Albuquerque Center
Wed 04:10:24 PM 34.7378 -101.6547 101° East 426 490 37,000  Level Albuquerque Center
Wed 04:11:26 PM 34.7108 -101.4856 101° East 429 494 37,000  Level Albuquerque Center
Wed 04:12:27 PM 34.6872 -101.3456 102° East 427 491 37,000  Level Albuquerque Center
Wed 04:13:29 PM 34.6644 -101.2042 101° East 428 493 37,000  Level Albuquerque Center
Wed 04:14:30 PM 34.6408 -101.0611 101° East 431 496 37,000  Level Albuquerque Center
Wed 04:15:32 PM 34.6169 -100.9183 101° East 433 498 37,000  Level Albuquerque Center
Wed 04:16:34 PM 34.5922 -100.7747 102° East 434 499 37,000  Level Albuquerque Center
Wed 04:17:35 PM 34.5628 -100.6017 102° East 438 504 37,000  Level Albuquerque Center
Wed 04:18:37 PM 34.5381 -100.4594 102° East 435 501 37,000  Level Albuquerque Center
Wed 04:19:39 PM 34.5128 -100.3194 102° East 430 495 37,000  Level Albuquerque Center
Wed 04:20:40 PM 34.4886 -100.1775 102° East 430 495 37,000  Level Albuquerque Center
Wed 04:21:42 PM 34.4625 -100.0325 102° East 431 496 37,000  Level Albuquerque Center
Wed 04:22:44 PM 34.4375 -99.8911 102° East 430 495 37,000  Level Albuquerque Center
Wed 04:23:45 PM 34.4111 -99.7475 103° East 435 501 37,000  Level Albuquerque Center
Wed 04:24:47 PM 34.3858 -99.6058 102° East 433 498 37,000  Level Albuquerque Center
Wed 04:25:49 PM 34.3553 -99.4347 102° East 433 498 37,000  Level Albuquerque Center
Wed 04:26:50 PM 34.3292 -99.2917 102° East 434 499 37,000  Level Albuquerque Center
Wed 04:28:02 PM 34.3014 -99.1331 102° East 432 497 37,000  Level Fort Worth Center
Wed 04:29:02 PM 34.2700 -98.9817 104° East 432 497 37,000  Level Fort Worth Center
Wed 04:30:02 PM 34.2422 -98.8406 103° East 432 497 37,000  Level Fort Worth Center
Wed 04:31:03 PM 34.2147 -98.6944 103° East 432 497 37,000  Level Fort Worth Center
Wed 04:32:02 PM 34.1889 -98.5533 102° East 432 497 37,000  Level Fort Worth Center
Wed 04:33:02 PM 34.1589 -98.4075 104° East 432 497 37,000  Level Fort Worth Center
Wed 04:34:02 PM 34.1308 -98.2642 103° East 432 497 37,000  Level Fort Worth Center
Wed 04:35:02 PM 34.1025 -98.1208 103° East 432 497 37,000  Level Fort Worth Center
Wed 04:36:02 PM 34.0822 -97.9853 100° East 432 497 37,000  Level Fort Worth Center
Wed 04:37:02 PM 34.0536 -97.8372 103° East 437 503 37,000  Level Fort Worth Center
Wed 04:38:02 PM 34.0247 -97.6942 104° East 437 503 37,000  Level Fort Worth Center
Wed 04:39:02 PM 33.9958 -97.5514 104° East 437 503 37,000  Level Fort Worth Center
Wed 04:40:02 PM 33.9689 -97.4086 103° East 437 503 37,000  Level Fort Worth Center
Wed 04:41:02 PM 33.9375 -97.2633 105° East 437 503 37,000  Level Fort Worth Center
Wed 04:42:02 PM 33.9100 -97.1156 103° East 437 503 37,000  Level Fort Worth Center
Wed 04:43:02 PM 33.8783 -96.9731 105° East 437 503 37,000  Level Fort Worth Center
Wed 04:44:02 PM 33.8486 -96.8258 104° East 437 503 37,000  Level Fort Worth Center
Wed 04:45:02 PM 33.8186 -96.6783 104° East 437 503 37,000  Level Fort Worth Center
Wed 04:46:03 PM 33.7883 -96.5311 104° East 443 510 37,000  Level Fort Worth Center
Wed 04:47:02 PM 33.7581 -96.3842 104° East 449 517 37,000  Level Fort Worth Center
Wed 04:48:02 PM 33.7275 -96.2422 104° East 449 517 37,000  Level Fort Worth Center
Wed 04:49:02 PM 33.6928 -96.0953 106° East 449 517 37,000  Level Fort Worth Center
Wed 04:50:02 PM 33.6661 -95.9486 102° East 449 517 37,000  Level Fort Worth Center
Wed 04:51:02 PM 33.6308 -95.8019 106° East 449 517 37,000  Level Fort Worth Center
Wed 04:52:02 PM 33.5997 -95.6553 104° East 449 517 37,000  Level Fort Worth Center
Wed 04:53:02 PM 33.5639 -95.4989 105° East 449 517 37,000  Level Fort Worth Center
Wed 04:54:02 PM 33.5325 -95.3525 104° East 444 511 37,000  Level Fort Worth Center
Wed 04:55:03 PM 33.4986 -95.2064 106° East 444 511 37,000  Level Fort Worth Center
Wed 04:56:02 PM 33.4689 -95.0603 104° East 449 517 37,000  Level Fort Worth Center
Wed 04:57:02 PM 33.4369 -94.9119 104° East 449 517 37,000  Level Fort Worth Center
Wed 04:58:03 PM 33.4025 -94.7661 106° East 449 517 37,000  Level Fort Worth Center
Wed 04:59:02 PM 33.3703 -94.6228 105° East 449 517 37,000  Level Fort Worth Center
Wed 05:00:02 PM 33.3356 -94.4772 106° East 449 517 37,000  Level Fort Worth Center
Wed 05:01:02 PM 33.3031 -94.3339 105° East 449 517 37,000  Level Fort Worth Center
Wed 05:02:02 PM 33.2700 -94.1886 105° East 449 517 37,000  Level Fort Worth Center
Wed 05:03:02 PM 33.2356 -94.0606 108° East 449 517 37,000  Level Fort Worth Center
Wed 05:04:02 PM 33.2000 -93.9131 106° East 455 524 37,000  Level Fort Worth Center
Wed 05:05:02 PM 33.1708 -93.7678 103° East 455 524 37,000  Level Fort Worth Center
Wed 05:06:02 PM 33.1394 -93.6253 105° East 448 516 37,000  Level Fort Worth Center
Wed 05:07:02 PM 33.1058 -93.4828 106° East 443 510 37,000  Level Fort Worth Center
Wed 05:08:02 PM 33.0744 -93.3431 105° East 443 510 37,000  Level Fort Worth Center
Wed 05:09:02 PM 33.0406 -93.2008 106° East 438 504 37,000  Level Fort Worth Center
Wed 05:10:03 PM 33.0064 -93.0589 106° East 438 504 37,000  Level Fort Worth Center
Wed 05:11:02 PM 32.9681 -92.9194 108° East 438 504 37,000  Level Fort Worth Center
Wed 05:12:02 PM 32.9378 -92.7775 104° East 438 504 37,000  Level Fort Worth Center
Wed 05:13:03 PM 32.9056 -92.6356 105° East 438 504 37,000  Level Fort Worth Center
Wed 05:14:02 PM 32.8689 -92.4967 107° East 438 504 37,000  Level Fort Worth Center
Wed 05:15:51 PM 32.8081 -92.2431 106° East 437 503 37,000  Level Memphis Center
Wed 05:16:50 PM 32.7725 -92.1042 107° East 437 503 37,000  Level Memphis Center
Wed 05:17:50 PM 32.7308 -91.9525 108° East 442 509 37,000  Level Memphis Center
Wed 05:18:51 PM 32.6969 -91.8139 106° East 442 509 37,000  Level Memphis Center
Wed 05:19:50 PM 32.6608 -91.6700 107° East 442 509 37,000  Level Memphis Center
Wed 05:20:50 PM 32.6267 -91.5339 107° East 442 509 37,000  Level Memphis Center
Wed 05:21:51 PM 32.5864 -91.3928 109° East 442 509 37,000  Level Memphis Center
Wed 05:22:50 PM 32.5539 -91.2544 106° East 442 509 37,000  Level Memphis Center
Wed 05:23:50 PM 32.5172 -91.1111 107° East 442 509 37,000  Level Memphis Center
Wed 05:24:51 PM 32.4825 -90.9731 107° East 442 509 37,000  Level Memphis Center
Wed 05:25:50 PM 32.4456 -90.8375 108° East 442 509 37,000  Level Memphis Center
Wed 05:26:50 PM 32.4083 -90.6969 107° East 442 509 37,000 248 Level Memphis Center
Wed 05:27:51 PM 32.3775 -90.5714 106° East 442 509 37,500 850 Climbing Memphis Center
Wed 05:28:50 PM 32.3400 -90.4358 108° East 442 509 38,700 756 Climbing Memphis Center
Wed 05:29:50 PM 32.3025 -90.2958 108° East 442 509 39,000 150 Climbing Memphis Center
Wed 05:30:50 PM 32.2647 -90.1558 108° East 442 509 39,000  Level Memphis Center
Wed 05:31:50 PM 32.2289 -90.0183 107° East 442 509 39,000  Level Memphis Center
Wed 05:32:50 PM 32.1908 -89.8811 108° East 442 509 39,000  Level Memphis Center
Wed 05:33:51 PM 32.1547 -89.7439 107° East 442 509 39,000  Level Memphis Center
Wed 05:34:51 PM 32.1164 -89.6044 108° East 442 509 39,000  Level Memphis Center
Wed 05:35:50 PM 32.0800 -89.4697 108° East 442 509 39,000  Level Memphis Center
Wed 05:36:51 PM 32.0433 -89.3306 107° East 442 509 39,000  Level Memphis Center
Wed 05:37:50 PM 32.0003 -89.1814 109° East 442 509 39,000  Level Memphis Center
Wed 05:38:50 PM 31.9614 -89.0475 109° East 442 509 39,000  Level Memphis Center
Wed 05:39:51 PM 31.9267 -88.9281 109° East 437 503 39,000  Level Memphis Center
Wed 05:41:32 PM 31.8597 -88.6844 108° East 436 502 39,000  Level Atlanta Center
Wed 05:42:32 PM 31.8231 -88.5483 108° East 431 496 39,000  Level Atlanta Center
Wed 05:43:32 PM 31.7839 -88.4119 109° East 431 496 39,000  Level Atlanta Center
Wed 05:44:32 PM 31.7469 -88.2758 108° East 431 496 39,000  Level Atlanta Center
Wed 05:45:32 PM 31.7097 -88.1422 108° East 431 496 39,000  Level Atlanta Center
Wed 05:46:32 PM 31.6725 -88.0089 108° East 431 496 39,000 -420 Level Atlanta Center
Wed 05:50:18 PM 31.5269 -87.5183 109° East 432 497 37,000 -420 Descending Jacksonville Center
Wed 05:51:18 PM 31.4878 -87.3822 109° East 432 497 37,000  Level Jacksonville Center
Wed 05:52:18 PM 31.4486 -87.2489 109° East 432 497 37,000  Level Jacksonville Center
Wed 05:53:18 PM 31.4092 -87.1181 109° East 432 497 37,000  Level Jacksonville Center
Wed 05:54:18 PM 31.3656 -86.9872 111° Southeast 432 497 37,000  Level Jacksonville Center
Wed 05:55:18 PM 31.3258 -86.8542 109° East 432 497 37,000  Level Jacksonville Center
Wed 05:56:18 PM 31.2903 -86.7214 107° East 432 497 37,000  Level Jacksonville Center
Wed 05:57:18 PM 31.2589 -86.5842 105° East 432 497 37,000  Level Jacksonville Center
Wed 05:58:18 PM 31.2294 -86.4492 104° East 426 490 37,000  Level Jacksonville Center
Wed 05:59:18 PM 31.1978 -86.3122 105° East 426 490 37,000  Level Jacksonville Center
Wed 06:00:18 PM 31.1678 -86.1750 104° East 426 490 37,000 -600 Level Jacksonville Center
Wed 06:01:18 PM 31.1356 -86.0453 106° East 426 490 35,800 -1,750 Descending Jacksonville Center
Wed 06:02:18 PM 31.1075 -85.9133 104° East 421 484 33,500 -2,100 Descending Jacksonville Center
Wed 06:03:18 PM 31.0772 -85.7839 105° East 416 479 31,600 -2,000 Descending Jacksonville Center
Wed 06:04:18 PM 31.0467 -85.6472 105° East 411 473 29,500 -2,000 Descending Jacksonville Center
Wed 06:05:18 PM 31.0181 -85.5228 105° East 404 465 27,600 -1,250 Descending Jacksonville Center
Wed 06:06:18 PM 30.9914 -85.4056 105° East 385 443 27,000 -300 Descending Jacksonville Center
Wed 06:07:18 PM 30.9706 -85.2864 101° East 380 437 27,000 -200 Level Jacksonville Center
Wed 06:08:18 PM 30.9561 -85.1625 98° East 375 432 26,600 -750 Descending Jacksonville Center
Wed 06:09:18 PM 30.9417 -85.0433 98° East 375 432 25,500 -1,000 Descending Jacksonville Center
Wed 06:10:18 PM 30.9225 -84.9267 101° East 369 425 24,600 -750 Descending Jacksonville Center
Wed 06:11:18 PM 30.8950 -84.8125 106° East 369 425 24,000 -300 Descending Jacksonville Center
Wed 06:12:18 PM 30.8633 -84.7053 109° East 379 436 24,000  Level Jacksonville Center
Wed 06:13:18 PM 30.8314 -84.5908 108° East 379 436 24,000  Level Jacksonville Center
Wed 06:14:18 PM 30.8017 -84.4792 107° East 374 430 24,000  Level Jacksonville Center
Wed 06:15:18 PM 30.7697 -84.3603 107° East 374 430 24,000  Level Jacksonville Center
Wed 06:16:18 PM 30.7375 -84.2461 108° East 369 425 24,000  Level Jacksonville Center
Wed 06:17:18 PM 30.7053 -84.1297 108° East 369 425 24,000  Level Jacksonville Center
Wed 06:18:18 PM 30.6728 -84.0133 108° East 369 425 24,000  Level Jacksonville Center
Wed 06:19:18 PM 30.6406 -83.9019 109° East 369 425 24,000  Level Jacksonville Center
Wed 06:20:18 PM 30.6100 -83.7856 107° East 369 425 24,000  Level Jacksonville Center
Wed 06:21:18 PM 30.5772 -83.6694 108° East 374 430 24,000  Level Jacksonville Center
Wed 06:22:18 PM 30.5467 -83.5558 107° East 369 425 24,000 -300 Level Jacksonville Center
Wed 06:23:18 PM 30.5347 -83.4353 97° East 364 419 23,400 -800 Descending Jacksonville Center
Wed 06:24:18 PM 30.5311 -83.3169 92° East 364 419 22,400 -1,000 Descending Jacksonville Center
Wed 06:25:18 PM 30.5272 -83.2014 92° East 364 419 21,400 -1,000 Descending Jacksonville Center
Wed 06:26:18 PM 30.5231 -83.0928 93° East 352 405 20,400 -1,000 Descending Jacksonville Center
Wed 06:27:18 PM 30.5192 -82.9794 92° East 347 399 19,400 -1,000 Descending Jacksonville Center
Wed 06:28:18 PM 30.5150 -82.8708 93° East 347 399 18,400 -900 Descending Jacksonville Center
Wed 06:29:18 PM 30.5128 -82.7647 91° East 347 399 17,600 -1,200 Descending Jacksonville Center
Wed 06:30:18 PM 30.5064 -82.6514 94° East 340 391 16,000 -1,722 Descending Jacksonville Center
Wed 06:31:06 PM 30.5042 -82.5744 92° East 315 362 14,500 -1,748 Descending Jacksonville Center
Wed 06:32:01 PM 30.5269 -82.4875 73° East 307 353 13,000 -1,603 Descending Jacksonville Center
Wed 06:33:02 PM 30.5433 -82.3933 79° East 295 339 11,400 -1,328 Descending Jacksonville Center
Wed 06:34:03 PM 30.5511 -82.3039 84° East 279 321 10,300 -1,461 Descending Jacksonville Center
Wed 06:34:57 PM 30.5486 -82.2219 92° East 277 319 8,600 -1,878 Descending Jacksonville Center
Wed 06:35:58 PM 30.5503 -82.1328 89° East 274 315 6,700 -1,869 Descending Jacksonville Center
Wed 06:36:59 PM 30.5475 -82.0411 92° East 263 303 4,800 -1,820 Descending Jacksonville Center
Wed 06:38:00 PM 30.5450 -81.9592 92° East 256 295 3,000 -1,525 Descending Jacksonville Center
Wed 06:39:01 PM 30.5444 -81.8747 90° East 254 292 1,700 -590 Descending Jacksonville Center
Wed 06:40:02 PM 30.5439 -81.8072 91° East 188 216 1,800 -197 Climbing Jacksonville Center
Wed 06:41:03 PM 30.5331 -81.7639 106° East 138 159 1,300 -569 Descending Jacksonville Center
Wed 06:41:58 PM 30.5097 -81.7303 129° Southeast 127 146 700 -655 Descending Jacksonville Center
Wed 06:43:00 PM 30.4941 -81.6879 115° Southeast  Level Estimated
Wed 06:50:00 PM 30.4941 -81.6879 311° West  Level Estimated
Wed 06:51:00 PM 30.4941 -81.6879 311° West  Level Estimated

Login

Don't have an account? Register now (free) for customized features, flight alerts, and more!